sensor_id;sensor_type;location;lat;lon;timestamp;pressure;altitude;pressure_sealevel;temperature;humidity
70589;BME280;58152;49.202;18.744;2022-07-17T00:04:40;98080.69;;;16.43;51.01
70589;BME280;58152;49.202;18.744;2022-07-17T00:07:14;98086.84;;;16.43;51.52
70589;BME280;58152;49.202;18.744;2022-07-17T00:09:39;98074.91;;;16.36;51.51
70589;BME280;58152;49.202;18.744;2022-07-17T00:18:19;98088.22;;;16.35;51.47
70589;BME280;58152;49.202;18.744;2022-07-17T00:21:10;98081.84;;;16.23;52.44
70589;BME280;58152;49.202;18.744;2022-07-17T00:23:37;98095.16;;;16.21;51.79
70589;BME280;58152;49.202;18.744;2022-07-17T00:26:10;98086.56;;;16.18;52.23
70589;BME280;58152;49.202;18.744;2022-07-17T00:31:38;98096.81;;;16.08;51.92
70589;BME280;58152;49.202;18.744;2022-07-17T00:34:15;98099.59;;;16.05;52.88
70589;BME280;58152;49.202;18.744;2022-07-17T00:37:06;98085.19;;;15.95;52.47
70589;BME280;58152;49.202;18.744;2022-07-17T00:39:46;98097.72;;;15.91;52.37
70589;BME280;58152;49.202;18.744;2022-07-17T00:45:19;98104.22;;;15.86;52.20
70589;BME280;58152;49.202;18.744;2022-07-17T00:48:05;98111.38;;;15.84;53.17
70589;BME280;58152;49.202;18.744;2022-07-17T00:51:05;98092.66;;;15.71;53.53
70589;BME280;58152;49.202;18.744;2022-07-17T01:32:39;98105.13;;;15.18;53.23
70589;BME280;58152;49.202;18.744;2022-07-17T01:49:19;98109.09;;;14.92;53.39
70589;BME280;58152;49.202;18.744;2022-07-17T01:51:45;98106.88;;;14.85;53.18
70589;BME280;58152;49.202;18.744;2022-07-17T01:54:10;98118.19;;;14.87;54.16
70589;BME280;58152;49.202;18.744;2022-07-17T01:56:36;98111.91;;;14.72;54.17
70589;BME280;58152;49.202;18.744;2022-07-17T01:59:03;98113.69;;;14.71;54.24
70589;BME280;58152;49.202;18.744;2022-07-17T02:01:29;98105.38;;;14.79;54.39
70589;BME280;58152;49.202;18.744;2022-07-17T02:03:54;98111.69;;;14.94;54.56
70589;BME280;58152;49.202;18.744;2022-07-17T02:06:20;98099.09;;;14.99;54.18
70589;BME280;58152;49.202;18.744;2022-07-17T02:08:48;98109.34;;;15.05;54.17
70589;BME280;58152;49.202;18.744;2022-07-17T02:11:19;98104.44;;;14.97;53.64
70589;BME280;58152;49.202;18.744;2022-07-17T02:13:44;98114.47;;;14.91;53.84
70589;BME280;58152;49.202;18.744;2022-07-17T02:16:10;98114.84;;;14.83;53.92
70589;BME280;58152;49.202;18.744;2022-07-17T02:18:35;98118.56;;;14.79;53.68
70589;BME280;58152;49.202;18.744;2022-07-17T02:21:01;98120.81;;;14.69;54.29
70589;BME280;58152;49.202;18.744;2022-07-17T02:23:27;98125.47;;;14.64;53.82
70589;BME280;58152;49.202;18.744;2022-07-17T02:25:54;98125.72;;;14.60;54.37
70589;BME280;58152;49.202;18.744;2022-07-17T02:28:20;98128.44;;;14.58;54.37
70589;BME280;58152;49.202;18.744;2022-07-17T02:30:46;98122.00;;;14.45;54.54
70589;BME280;58152;49.202;18.744;2022-07-17T02:33:20;98134.41;;;14.43;54.62
70589;BME280;58152;49.202;18.744;2022-07-17T02:35:46;98131.13;;;14.38;55.04
70589;BME280;58152;49.202;18.744;2022-07-17T02:38:11;98133.00;;;14.36;54.93
70589;BME280;58152;49.202;18.744;2022-07-17T02:40:38;98116.53;;;14.31;54.77
70589;BME280;58152;49.202;18.744;2022-07-17T02:43:04;98118.47;;;14.27;54.66
70589;BME280;58152;49.202;18.744;2022-07-17T02:45:33;98128.09;;;14.28;54.54
70589;BME280;58152;49.202;18.744;2022-07-17T02:47:58;98131.13;;;14.20;54.53
70589;BME280;58152;49.202;18.744;2022-07-17T02:50:24;98122.00;;;14.09;54.44
70589;BME280;58152;49.202;18.744;2022-07-17T02:52:49;98135.91;;;14.12;54.27
70589;BME280;58152;49.202;18.744;2022-07-17T02:55:20;98136.13;;;14.08;54.75
70589;BME280;58152;49.202;18.744;2022-07-17T02:57:46;98128.63;;;13.98;54.87
70589;BME280;58152;49.202;18.744;2022-07-17T03:00:15;98133.09;;;13.96;54.87
70589;BME280;58152;49.202;18.744;2022-07-17T03:02:41;98147.16;;;13.97;54.78
70589;BME280;58152;49.202;18.744;2022-07-17T03:05:13;98151.88;;;13.90;54.97
70589;BME280;58152;49.202;18.744;2022-07-17T03:07:39;98141.00;;;13.78;55.55
70589;BME280;58152;49.202;18.744;2022-07-17T03:10:11;98154.94;;;13.81;55.29
70589;BME280;58152;49.202;18.744;2022-07-17T03:12:39;98149.09;;;13.75;55.25
70589;BME280;58152;49.202;18.744;2022-07-17T03:15:08;98159.63;;;13.75;55.56
70589;BME280;58152;49.202;18.744;2022-07-17T03:17:34;98153.84;;;13.66;55.28
70589;BME280;58152;49.202;18.744;2022-07-17T03:20:00;98168.53;;;13.72;55.52
70589;BME280;58152;49.202;18.744;2022-07-17T03:22:26;98160.75;;;13.69;55.40
70589;BME280;58152;49.202;18.744;2022-07-17T03:24:51;98169.47;;;13.71;55.22
70589;BME280;58152;49.202;18.744;2022-07-17T03:27:17;98160.09;;;13.64;55.41
70589;BME280;58152;49.202;18.744;2022-07-17T03:29:43;98167.25;;;13.62;55.37
70589;BME280;58152;49.202;18.744;2022-07-17T03:32:09;98172.63;;;13.59;55.51
70589;BME280;58152;49.202;18.744;2022-07-17T03:34:36;98172.75;;;13.56;55.81
70589;BME280;58152;49.202;18.744;2022-07-17T03:37:02;98171.13;;;13.53;55.60
70589;BME280;58152;49.202;18.744;2022-07-17T03:39:29;98177.34;;;13.52;55.85
70589;BME280;58152;49.202;18.744;2022-07-17T03:41:54;98184.22;;;13.55;55.99
70589;BME280;58152;49.202;18.744;2022-07-17T03:44:20;98187.03;;;13.52;55.64
70589;BME280;58152;49.202;18.744;2022-07-17T03:46:45;98179.16;;;13.50;55.74
70589;BME280;58152;49.202;18.744;2022-07-17T03:49:11;98184.53;;;13.48;55.75
70589;BME280;58152;49.202;18.744;2022-07-17T03:51:36;98197.56;;;13.52;56.01
70589;BME280;58152;49.202;18.744;2022-07-17T03:54:02;98191.50;;;13.50;56.08
70589;BME280;58152;49.202;18.744;2022-07-17T03:56:27;98190.84;;;13.44;56.30
70589;BME280;58152;49.202;18.744;2022-07-17T03:58:53;98202.38;;;13.42;56.03
70589;BME280;58152;49.202;18.744;2022-07-17T04:01:18;98202.56;;;13.37;56.13
70589;BME280;58152;49.202;18.744;2022-07-17T04:03:44;98194.94;;;13.31;56.55
70589;BME280;58152;49.202;18.744;2022-07-17T04:06:09;98199.28;;;13.32;56.60
70589;BME280;58152;49.202;18.744;2022-07-17T04:08:35;98202.91;;;13.30;56.87
70589;BME280;58152;49.202;18.744;2022-07-17T04:11:00;98219.47;;;13.33;56.75
70589;BME280;58152;49.202;18.744;2022-07-17T04:13:26;98205.59;;;13.28;56.92
70589;BME280;58152;49.202;18.744;2022-07-17T04:15:51;98213.56;;;13.27;57.46
70589;BME280;58152;49.202;18.744;2022-07-17T04:18:31;98217.88;;;13.29;57.17
70589;BME280;58152;49.202;18.744;2022-07-17T04:20:59;98210.94;;;13.27;57.40
70589;BME280;58152;49.202;18.744;2022-07-17T04:23:25;98218.56;;;13.33;57.29
70589;BME280;58152;49.202;18.744;2022-07-17T04:25:52;98219.47;;;13.33;57.59
70589;BME280;58152;49.202;18.744;2022-07-17T04:28:18;98229.19;;;13.31;57.45
70589;BME280;58152;49.202;18.744;2022-07-17T04:30:44;98220.53;;;13.28;57.76
70589;BME280;58152;49.202;18.744;2022-07-17T04:33:10;98224.13;;;13.27;57.96
70589;BME280;58152;49.202;18.744;2022-07-17T04:35:35;98230.97;;;13.31;57.73
70589;BME280;58152;49.202;18.744;2022-07-17T04:38:02;98237.09;;;13.31;58.07
70589;BME280;58152;49.202;18.744;2022-07-17T04:40:29;98222.34;;;13.27;58.01
70589;BME280;58152;49.202;18.744;2022-07-17T04:42:58;98235.19;;;13.35;58.07
70589;BME280;58152;49.202;18.744;2022-07-17T04:45:23;98228.41;;;13.29;58.40
70589;BME280;58152;49.202;18.744;2022-07-17T04:47:49;98233.59;;;13.31;57.80
70589;BME280;58152;49.202;18.744;2022-07-17T04:50:15;98231.91;;;13.30;58.24
70589;BME280;58152;49.202;18.744;2022-07-17T04:52:40;98230.97;;;13.31;58.51
70589;BME280;58152;49.202;18.744;2022-07-17T04:55:06;98240.53;;;13.33;58.91
70589;BME280;58152;49.202;18.744;2022-07-17T04:57:32;98245.53;;;13.39;58.73
70589;BME280;58152;49.202;18.744;2022-07-17T04:59:57;98241.25;;;13.37;58.80
70589;BME280;58152;49.202;18.744;2022-07-17T05:02:23;98238.59;;;13.37;59.28
70589;BME280;58152;49.202;18.744;2022-07-17T05:04:49;98237.72;;;13.38;59.01
70589;BME280;58152;49.202;18.744;2022-07-17T05:07:14;98237.63;;;13.39;59.35
70589;BME280;58152;49.202;18.744;2022-07-17T05:09:40;98243.47;;;13.46;58.67
70589;BME280;58152;49.202;18.744;2022-07-17T05:12:06;98246.94;;;13.48;59.22
70589;BME280;58152;49.202;18.744;2022-07-17T05:14:32;98239.03;;;13.48;59.32
70589;BME280;58152;49.202;18.744;2022-07-17T05:16:57;98246.00;;;13.49;59.74
70589;BME280;58152;49.202;18.744;2022-07-17T05:19:23;98244.13;;;13.51;59.42
70589;BME280;58152;49.202;18.744;2022-07-17T05:21:49;98241.59;;;13.50;59.62
70589;BME280;58152;49.202;18.744;2022-07-17T05:24:15;98252.00;;;13.53;59.71
70589;BME280;58152;49.202;18.744;2022-07-17T05:26:40;98247.66;;;13.52;59.80
70589;BME280;58152;49.202;18.744;2022-07-17T05:29:06;98247.59;;;13.53;59.86
70589;BME280;58152;49.202;18.744;2022-07-17T05:31:32;98251.94;;;13.54;60.05
70589;BME280;58152;49.202;18.744;2022-07-17T05:33:57;98248.31;;;13.57;59.91
70589;BME280;58152;49.202;18.744;2022-07-17T05:36:23;98248.25;;;13.58;60.44
70589;BME280;58152;49.202;18.744;2022-07-17T05:38:48;98245.59;;;13.58;59.94
70589;BME280;58152;49.202;18.744;2022-07-17T05:41:14;98255.94;;;13.63;60.83
70589;BME280;58152;49.202;18.744;2022-07-17T05:43:39;98258.66;;;13.61;60.76
70589;BME280;58152;49.202;18.744;2022-07-17T05:46:05;98259.56;;;13.60;60.65
70589;BME280;58152;49.202;18.744;2022-07-17T05:48:31;98259.44;;;13.63;60.47
70589;BME280;58152;49.202;18.744;2022-07-17T05:50:57;98261.97;;;13.66;60.31
70589;BME280;58152;49.202;18.744;2022-07-17T05:53:22;98266.31;;;13.67;60.33
70589;BME280;58152;49.202;18.744;2022-07-17T05:55:48;98276.78;;;13.69;60.50
70589;BME280;58152;49.202;18.744;2022-07-17T05:58:14;98265.53;;;13.65;60.56
70589;BME280;58152;49.202;18.744;2022-07-17T06:00:39;98269.66;;;13.71;60.46
70589;BME280;58152;49.202;18.744;2022-07-17T06:03:05;98265.38;;;13.68;60.56
70589;BME280;58152;49.202;18.744;2022-07-17T06:05:30;98274.75;;;13.76;60.64
70589;BME280;58152;49.202;18.744;2022-07-17T06:07:57;98271.25;;;13.75;60.36
70589;BME280;58152;49.202;18.744;2022-07-17T06:10:24;98276.31;;;13.80;61.18
70589;BME280;58152;49.202;18.744;2022-07-17T06:12:50;98275.31;;;13.82;60.92
70589;BME280;58152;49.202;18.744;2022-07-17T06:15:18;98277.19;;;13.80;61.05
70589;BME280;58152;49.202;18.744;2022-07-17T06:17:44;98284.03;;;13.84;61.10
70589;BME280;58152;49.202;18.744;2022-07-17T06:20:10;98277.91;;;13.84;60.75
70589;BME280;58152;49.202;18.744;2022-07-17T06:22:35;98270.84;;;13.84;60.75
70589;BME280;58152;49.202;18.744;2022-07-17T06:25:01;98275.13;;;13.87;60.81
70589;BME280;58152;49.202;18.744;2022-07-17T06:27:26;98284.53;;;13.92;60.31
70589;BME280;58152;49.202;18.744;2022-07-17T06:29:52;98289.75;;;13.94;60.45
70589;BME280;58152;49.202;18.744;2022-07-17T06:32:17;98281.00;;;13.93;60.31
70589;BME280;58152;49.202;18.744;2022-07-17T06:34:43;98279.13;;;13.95;60.09
70589;BME280;58152;49.202;18.744;2022-07-17T06:37:08;98283.56;;;13.95;60.12
70589;BME280;58152;49.202;18.744;2022-07-17T06:39:34;98285.13;;;13.99;60.06
70589;BME280;58152;49.202;18.744;2022-07-17T06:42:00;98287.66;;;14.02;59.74
70589;BME280;58152;49.202;18.744;2022-07-17T06:44:25;98285.88;;;14.03;59.61
70589;BME280;58152;49.202;18.744;2022-07-17T06:46:51;98276.09;;;14.05;59.52
70589;BME280;58152;49.202;18.744;2022-07-17T06:49:16;98289.06;;;14.09;59.58
70589;BME280;58152;49.202;18.744;2022-07-17T06:51:41;98292.50;;;14.11;59.22
70589;BME280;58152;49.202;18.744;2022-07-17T06:54:11;98287.94;;;14.15;58.79
70589;BME280;58152;49.202;18.744;2022-07-17T06:56:37;98292.22;;;14.17;58.75
70589;BME280;58152;49.202;18.744;2022-07-17T06:59:02;98296.44;;;14.21;58.63
70589;BME280;58152;49.202;18.744;2022-07-17T07:01:28;98305.94;;;14.26;58.29
70589;BME280;58152;49.202;18.744;2022-07-17T07:03:53;98289.25;;;14.25;58.21
70589;BME280;58152;49.202;18.744;2022-07-17T07:06:19;98302.38;;;14.27;57.85
70589;BME280;58152;49.202;18.744;2022-07-17T07:08:44;98299.59;;;14.30;57.84
70589;BME280;58152;49.202;18.744;2022-07-17T07:11:10;98296.97;;;14.30;57.80
70589;BME280;58152;49.202;18.744;2022-07-17T07:13:36;98289.81;;;14.32;57.71
70589;BME280;58152;49.202;18.744;2022-07-17T07:16:01;98302.59;;;14.41;57.71
70589;BME280;58152;49.202;18.744;2022-07-17T07:18:27;98289.31;;;14.42;57.57
70589;BME280;58152;49.202;18.744;2022-07-17T07:20:53;98291.09;;;14.42;57.86
70589;BME280;58152;49.202;18.744;2022-07-17T07:23:18;98296.19;;;14.46;57.20
70589;BME280;58152;49.202;18.744;2022-07-17T07:25:44;98297.00;;;14.48;57.18
70589;BME280;58152;49.202;18.744;2022-07-17T07:28:10;98289.00;;;14.50;56.47
70589;BME280;58152;49.202;18.744;2022-07-17T07:30:35;98300.41;;;14.51;56.72
70589;BME280;58152;49.202;18.744;2022-07-17T07:33:01;98297.88;;;14.49;56.75
70589;BME280;58152;49.202;18.744;2022-07-17T07:35:26;98298.50;;;14.54;56.22
70589;BME280;58152;49.202;18.744;2022-07-17T07:37:52;98295.66;;;14.59;nan
70589;BME280;58152;49.202;18.744;2022-07-17T07:40:18;98291.22;;;14.59;56.34
70589;BME280;58152;49.202;18.744;2022-07-17T07:42:43;98293.50;;;14.67;56.42
70589;BME280;58152;49.202;18.744;2022-07-17T07:45:09;98290.56;;;14.73;56.37
70589;BME280;58152;49.202;18.744;2022-07-17T07:47:44;98301.06;;;14.74;55.97
70589;BME280;58152;49.202;18.744;2022-07-17T07:50:11;98304.50;;;14.77;56.14
70589;BME280;58152;49.202;18.744;2022-07-17T07:52:37;98301.69;;;14.80;56.38
70589;BME280;58152;49.202;18.744;2022-07-17T07:55:03;98311.13;;;14.85;56.13
70589;BME280;58152;49.202;18.744;2022-07-17T07:57:29;98301.47;;;14.84;56.17
70589;BME280;58152;49.202;18.744;2022-07-17T08:00:00;98310.84;;;14.91;56.40
70589;BME280;58152;49.202;18.744;2022-07-17T08:02:26;98310.63;;;14.96;56.02
70589;BME280;58152;49.202;18.744;2022-07-17T08:04:52;98301.63;;;15.00;56.09
70589;BME280;58152;49.202;18.744;2022-07-17T08:07:17;98302.31;;;15.04;56.04
70589;BME280;58152;49.202;18.744;2022-07-17T08:09:42;98305.66;;;15.07;55.33
70589;BME280;58152;49.202;18.744;2022-07-17T08:12:08;98306.31;;;15.12;55.19
70589;BME280;58152;49.202;18.744;2022-07-17T08:14:56;98316.59;;;15.18;54.96
70589;BME280;58152;49.202;18.744;2022-07-17T08:17:31;98311.38;;;15.17;54.88
70589;BME280;58152;49.202;18.744;2022-07-17T08:19:56;98301.72;;;15.16;55.05
70589;BME280;58152;49.202;18.744;2022-07-17T08:22:28;98302.28;;;15.22;55.12
70589;BME280;58152;49.202;18.744;2022-07-17T08:24:53;98299.47;;;15.25;54.73
70589;BME280;58152;49.202;18.744;2022-07-17T08:27:19;98303.31;;;15.37;55.11
70589;BME280;58152;49.202;18.744;2022-07-17T08:29:53;98291.88;;;15.37;55.34
70589;BME280;58152;49.202;18.744;2022-07-17T08:32:19;98301.06;;;15.47;55.08
70589;BME280;58152;49.202;18.744;2022-07-17T08:34:48;98303.56;;;15.50;54.71
70589;BME280;58152;49.202;18.744;2022-07-17T08:37:13;98305.88;;;15.56;53.80
70589;BME280;58152;49.202;18.744;2022-07-17T08:39:39;98301.44;;;15.57;53.29
70589;BME280;58152;49.202;18.744;2022-07-17T08:42:05;98308.19;;;15.64;53.58
70589;BME280;58152;49.202;18.744;2022-07-17T08:44:33;98319.06;;;15.75;53.32
70589;BME280;58152;49.202;18.744;2022-07-17T08:46:59;98313.53;;;15.80;53.13
70589;BME280;58152;49.202;18.744;2022-07-17T08:55:34;98312.59;;;15.98;52.94
70589;BME280;58152;49.202;18.744;2022-07-17T08:58:00;98316.97;;;15.99;53.08
70589;BME280;58152;49.202;18.744;2022-07-17T09:00:27;98319.19;;;16.07;51.12
70589;BME280;58152;49.202;18.744;2022-07-17T09:03:14;98323.16;;;16.15;50.76
70589;BME280;58152;49.202;18.744;2022-07-17T09:05:40;98320.28;;;16.20;51.64
70589;BME280;58152;49.202;18.744;2022-07-17T09:08:16;98308.44;;;16.27;50.39
70589;BME280;58152;49.202;18.744;2022-07-17T09:10:44;98302.09;;;16.30;50.16
70589;BME280;58152;49.202;18.744;2022-07-17T09:13:22;98295.56;;;16.37;50.35
70589;BME280;58152;49.202;18.744;2022-07-17T09:15:50;98311.00;;;16.44;50.18
70589;BME280;58152;49.202;18.744;2022-07-17T09:18:16;98309.00;;;16.49;50.34
70589;BME280;58152;49.202;18.744;2022-07-17T09:21:05;98312.25;;;16.55;49.59
70589;BME280;58152;49.202;18.744;2022-07-17T09:23:40;98306.59;;;16.61;50.00
70589;BME280;58152;49.202;18.744;2022-07-17T09:26:53;98315.06;;;16.67;49.30
70589;BME280;58152;49.202;18.744;2022-07-17T09:32:41;98291.06;;;16.70;50.06
70589;BME280;58152;49.202;18.744;2022-07-17T09:35:10;98308.19;;;16.81;50.49
70589;BME280;58152;49.202;18.744;2022-07-17T09:37:37;98308.72;;;16.87;49.83
70589;BME280;58152;49.202;18.744;2022-07-17T09:40:10;98309.22;;;16.94;49.24
70589;BME280;58152;49.202;18.744;2022-07-17T09:42:36;98305.88;;;16.90;49.80
70589;BME280;58152;49.202;18.744;2022-07-17T09:45:05;98305.53;;;16.96;48.85
70589;BME280;58152;49.202;18.744;2022-07-17T09:47:33;98310.59;;;17.01;48.60
70589;BME280;58152;49.202;18.744;2022-07-17T09:50:00;98306.81;;;17.05;48.69
70589;BME280;58152;49.202;18.744;2022-07-17T09:52:31;98298.69;;;17.08;47.98
70589;BME280;58152;49.202;18.744;2022-07-17T09:54:59;98304.41;;;17.16;47.80
70589;BME280;58152;49.202;18.744;2022-07-17T09:57:30;98295.34;;;17.20;47.56
70589;BME280;58152;49.202;18.744;2022-07-17T10:00:02;98298.59;;;17.25;47.98
70589;BME280;58152;49.202;18.744;2022-07-17T10:02:28;98298.06;;;17.35;46.98
70589;BME280;58152;49.202;18.744;2022-07-17T10:04:54;98296.84;;;17.40;47.11
70589;BME280;58152;49.202;18.744;2022-07-17T10:07:20;98293.84;;;17.46;47.12
70589;BME280;58152;49.202;18.744;2022-07-17T10:09:46;98287.69;;;17.46;47.22
70589;BME280;58152;49.202;18.744;2022-07-17T10:12:15;98289.59;;;17.58;46.88
70589;BME280;58152;49.202;18.744;2022-07-17T10:14:42;98286.50;;;17.66;47.35
70589;BME280;58152;49.202;18.744;2022-07-17T10:17:11;98290.50;;;17.73;47.12
70589;BME280;58152;49.202;18.744;2022-07-17T10:19:53;98286.41;;;17.83;46.56
70589;BME280;58152;49.202;18.744;2022-07-17T10:22:19;98280.88;;;17.86;46.81
70589;BME280;58152;49.202;18.744;2022-07-17T10:24:47;98290.38;;;18.04;45.92
70589;BME280;58152;49.202;18.744;2022-07-17T10:27:35;98294.69;;;18.21;45.11
70589;BME280;58152;49.202;18.744;2022-07-17T10:33:37;98290.22;;;18.65;44.01
70589;BME280;58152;49.202;18.744;2022-07-17T10:39:23;98290.25;;;19.06;42.90
70589;BME280;58152;49.202;18.744;2022-07-17T10:42:06;98284.66;;;19.23;42.27
70589;BME280;58152;49.202;18.744;2022-07-17T10:44:52;98274.72;;;19.40;42.56
70589;BME280;58152;49.202;18.744;2022-07-17T11:02:05;98283.38;;;19.96;42.79
70589;BME280;58152;49.202;18.744;2022-07-17T11:08:17;98262.47;;;19.37;42.63
70589;BME280;58152;49.202;18.744;2022-07-17T11:11:52;98263.38;;;19.23;42.00
70589;BME280;58152;49.202;18.744;2022-07-17T11:15:16;98268.44;;;20.06;41.01
70589;BME280;58152;49.202;18.744;2022-07-17T11:18:13;98268.53;;;20.43;40.58
70589;BME280;58152;49.202;18.744;2022-07-17T11:21:26;98250.25;;;20.75;39.79
70589;BME280;58152;49.202;18.744;2022-07-17T11:24:24;98262.84;;;21.10;39.96
70589;BME280;58152;49.202;18.744;2022-07-17T11:26:56;98255.84;;;21.33;39.76
70589;BME280;58152;49.202;18.744;2022-07-17T11:33:14;98255.72;;;21.80;39.04
70589;BME280;58152;49.202;18.744;2022-07-17T11:38:38;98247.47;;;22.19;37.17
70589;BME280;58152;49.202;18.744;2022-07-17T11:41:07;98247.72;;;22.38;36.11
70589;BME280;58152;49.202;18.744;2022-07-17T11:43:48;98238.81;;;22.49;36.77
70589;BME280;58152;49.202;18.744;2022-07-17T11:46:20;98240.50;;;22.72;37.01
70589;BME280;58152;49.202;18.744;2022-07-17T11:51:39;98255.81;;;22.93;36.78
70589;BME280;58152;49.202;18.744;2022-07-17T11:54:30;98247.75;;;23.04;34.52
70589;BME280;58152;49.202;18.744;2022-07-17T11:57:40;98240.09;;;23.11;33.67
70589;BME280;58152;49.202;18.744;2022-07-17T12:04:00;98239.63;;;23.38;34.86
70589;BME280;58152;49.202;18.744;2022-07-17T12:13:36;98232.03;;;23.75;34.14
70589;BME280;58152;49.202;18.744;2022-07-17T12:16:55;98229.69;;;23.81;32.20
70589;BME280;58152;49.202;18.744;2022-07-17T12:19:51;98212.00;;;24.00;34.45
70589;BME280;58152;49.202;18.744;2022-07-17T12:23:08;98204.22;;;24.18;32.73
70589;BME280;58152;49.202;18.744;2022-07-17T12:28:41;98206.06;;;24.48;33.42
70589;BME280;58152;49.202;18.744;2022-07-17T12:31:17;98216.16;;;24.65;33.29
70589;BME280;58152;49.202;18.744;2022-07-17T12:34:02;98204.72;;;24.82;32.77
70589;BME280;58152;49.202;18.744;2022-07-17T12:36:46;98210.44;;;25.08;33.19
70589;BME280;58152;49.202;18.744;2022-07-17T12:39:14;98205.25;;;25.26;33.01
70589;BME280;58152;49.202;18.744;2022-07-17T12:41:39;98207.41;;;24.92;33.04
70589;BME280;58152;49.202;18.744;2022-07-17T12:44:18;98211.75;;;24.74;33.01
70589;BME280;58152;49.202;18.744;2022-07-17T12:46:46;98202.69;;;24.55;33.14
70589;BME280;58152;49.202;18.744;2022-07-17T12:49:40;98203.84;;;24.63;32.44
70589;BME280;58152;49.202;18.744;2022-07-17T12:55:25;98199.81;;;24.97;32.02
70589;BME280;58152;49.202;18.744;2022-07-17T12:58:10;98199.88;;;25.17;31.62
70589;BME280;58152;49.202;18.744;2022-07-17T13:01:12;98186.00;;;25.31;29.53
70589;BME280;58152;49.202;18.744;2022-07-17T13:03:52;98191.38;;;25.50;31.45
70589;BME280;58152;49.202;18.744;2022-07-17T13:06:45;98195.16;;;25.67;30.20
70589;BME280;58152;49.202;18.744;2022-07-17T13:12:35;98191.78;;;25.84;29.82
70589;BME280;58152;49.202;18.744;2022-07-17T13:15:38;98195.44;;;25.74;31.55
70589;BME280;58152;49.202;18.744;2022-07-17T13:18:12;98198.44;;;25.71;30.49
70589;BME280;58152;49.202;18.744;2022-07-17T13:20:43;98204.66;;;25.62;31.23
70589;BME280;58152;49.202;18.744;2022-07-17T13:23:18;98205.38;;;25.54;31.68
70589;BME280;58152;49.202;18.744;2022-07-17T13:25:54;98196.91;;;25.49;31.04
70589;BME280;58152;49.202;18.744;2022-07-17T13:28:29;98197.00;;;25.47;29.08
70589;BME280;58152;49.202;18.744;2022-07-17T13:34:20;98198.56;;;25.50;29.58
70589;BME280;58152;49.202;18.744;2022-07-17T13:37:26;98193.78;;;25.44;30.78
70589;BME280;58152;49.202;18.744;2022-07-17T13:40:18;98187.53;;;25.63;29.54
70589;BME280;58152;49.202;18.744;2022-07-17T13:43:23;98184.16;;;25.80;28.60
70589;BME280;58152;49.202;18.744;2022-07-17T13:46:26;98185.56;;;26.21;28.71
70589;BME280;58152;49.202;18.744;2022-07-17T13:49:40;98180.78;;;26.43;30.04
70589;BME280;58152;49.202;18.744;2022-07-17T13:52:08;98174.00;;;26.39;30.26
70589;BME280;58152;49.202;18.744;2022-07-17T13:54:33;98182.16;;;26.19;30.58
70589;BME280;58152;49.202;18.744;2022-07-17T13:56:59;98189.69;;;26.16;30.83
70589;BME280;58152;49.202;18.744;2022-07-17T14:02:55;98195.06;;;26.16;29.03
70589;BME280;58152;49.202;18.744;2022-07-17T14:09:01;98183.59;;;25.76;29.28
70589;BME280;58152;49.202;18.744;2022-07-17T14:11:43;98176.25;;;25.49;30.73
70589;BME280;58152;49.202;18.744;2022-07-17T14:18:48;98170.00;;;24.91;29.21
70589;BME280;58152;49.202;18.744;2022-07-17T14:22:22;98169.56;;;24.76;29.53
70589;BME280;58152;49.202;18.744;2022-07-17T14:42:06;98172.53;;;24.92;31.32
70589;BME280;58152;49.202;18.744;2022-07-17T14:48:50;98173.25;;;24.84;31.91
70589;BME280;58152;49.202;18.744;2022-07-17T14:51:16;98178.91;;;24.91;32.26
70589;BME280;58152;49.202;18.744;2022-07-17T14:53:41;98176.09;;;24.93;32.08
70589;BME280;58152;49.202;18.744;2022-07-17T14:56:42;98171.16;;;24.88;30.50
70589;BME280;58152;49.202;18.744;2022-07-17T14:59:26;98170.56;;;24.75;30.99
70589;BME280;58152;49.202;18.744;2022-07-17T15:02:13;98175.34;;;24.71;31.85
70589;BME280;58152;49.202;18.744;2022-07-17T15:05:01;98169.53;;;24.56;32.60
70589;BME280;58152;49.202;18.744;2022-07-17T15:07:52;98172.22;;;24.56;31.38
70589;BME280;58152;49.202;18.744;2022-07-17T15:18:01;98178.56;;;24.25;31.36
70589;BME280;58152;49.202;18.744;2022-07-17T15:24:53;98174.28;;;24.13;31.88
70589;BME280;58152;49.202;18.744;2022-07-17T15:28:00;98168.47;;;24.07;32.00
70589;BME280;58152;49.202;18.744;2022-07-17T15:30:54;98177.50;;;24.06;32.24
70589;BME280;58152;49.202;18.744;2022-07-17T15:34:03;98167.69;;;23.96;31.54
70589;BME280;58152;49.202;18.744;2022-07-17T15:37:16;98174.19;;;23.93;32.28
70589;BME280;58152;49.202;18.744;2022-07-17T15:39:59;98185.75;;;23.94;32.74
70589;BME280;58152;49.202;18.744;2022-07-17T16:13:18;98171.38;;;23.64;33.75
70589;BME280;58152;49.202;18.744;2022-07-17T16:22:33;98177.97;;;23.91;33.59
70589;BME280;58152;49.202;18.744;2022-07-17T16:28:45;98177.72;;;23.94;32.91
70589;BME280;58152;49.202;18.744;2022-07-17T16:31:43;98172.50;;;23.92;33.72
70589;BME280;58152;49.202;18.744;2022-07-17T16:34:08;98172.09;;;23.97;33.86
70589;BME280;58152;49.202;18.744;2022-07-17T16:36:34;98169.25;;;23.89;33.60
70589;BME280;58152;49.202;18.744;2022-07-17T16:38:59;98170.97;;;23.99;33.46
70589;BME280;58152;49.202;18.744;2022-07-17T16:41:27;98170.56;;;24.04;33.29
70589;BME280;58152;49.202;18.744;2022-07-17T16:43:58;98171.41;;;24.04;33.47
70589;BME280;58152;49.202;18.744;2022-07-17T16:46:26;98172.25;;;24.05;33.24
70589;BME280;58152;49.202;18.744;2022-07-17T16:48:57;98166.19;;;24.03;33.30
70589;BME280;58152;49.202;18.744;2022-07-17T16:51:22;98157.84;;;23.96;33.48
70589;BME280;58152;49.202;18.744;2022-07-17T16:53:48;98153.69;;;23.82;33.44
70589;BME280;58152;49.202;18.744;2022-07-17T16:56:16;98158.59;;;23.77;33.71
70589;BME280;58152;49.202;18.744;2022-07-17T16:58:45;98157.56;;;23.69;34.03